SECUSETU

Guest
Details From SECU - MARISCAL LAMAR
To SETU - TENIENTE CORONEL LUIS A MANTILLA
Flight Number -
Tags generated
Created
Modified
Stats Distance 242 nm / 449 km
Max Altitude 29,500 ft / 8,992 m
Waypoints 5
Social Downloads 4
Likes 0
Share VATSIM

Download

Looking for another format? Having issues loading an existing format? Contact us
Advertisement - Login to hide

Notes

Basic altitude profile: - Ascent Rate: 2500ft/min - Ascent Speed: 250kts - Cruise Altitude: 35000ft - Cruise Speed: 420kts - Descent Rate: 1500ft/min - Descent Speed: 250kts Options: - Use NATs: yes - Use PACOTS: yes - Use low airways: yes - Use high airways: yes

Route

SECU PAV W10G TNA SETU

ID Type Via Altitude Latitude Longitude Leg Dist Tot Dist Heading (true) Name
O SECU APT - 0 ft / 0 m -2.88947˚ -78.98440˚ - 0 nm - MARISCAL LAMAR
PAV VOR - 29,500 ft / 8,992 m -1.51389˚ -78.04500˚ 100 nm 100 nm 34° / 34° PASTAZA VOR-DME
SCLAA FIX W10G (AWY-LO) 23,500 ft / 7,163 m -1.20528˚ -77.91889˚ 20 nm 120 nm 22° / 22° -
TNA NDB W10G (AWY-LO) 23,100 ft / 7,041 m -0.98417˚ -77.82833˚ 14 nm 134 nm 22° / 22° TENA NDB
O SETU APT - 0 ft / 0 m 0.80951˚ -77.70806˚ 107 nm 242 nm 4° / 4° TENIENTE CORONEL LUIS A MANTILLA

Altitude Profile

Advertisement - Login to hide

Weather


0- 5 10 15 20 25 30 35+ Temperature / ° C

Clouds and Precipitation
Forecast for 2017-12-15 18:00 UTC. Updated an hour ago

Ground ~20,000 ft ~40,000 ft Winds

SECU

Details ICAO SECU (CUE)
Name MARISCAL LAMAR
Region Equador
Timezone America/Guayaquil (UTC-5.0)
Stats Elevation 8,306 ft / 2,532 m (AMSL)
Location -2.889468° -78.984398°
Runways 1
Magnetic Variation 2.618° W

METAR

SECU 151800Z 06007KT 9999 BKN040 26/09 Q1024

Decode

TAF

Not found

Departure Runways

ID Width Length Bearing (true) Bearing (mag) Surface Threshold Offset Overrun Length
05 118 ft / 36 m 6,240 ft / 1,902 m 51.98° 54.60° Asphalt 0 ft / 0 m 141 ft / 43 m
23 118 ft / 36 m 6,240 ft / 1,902 m 231.97° 234.59° Asphalt 0 ft / 0 m 0 ft / 0 m

SETU

Details ICAO SETU (TUA)
Name TENIENTE CORONEL LUIS A MANTILLA
Region Equador
Timezone America/Guayaquil (UTC-5.0)
Stats Elevation 9,649 ft / 2,941 m (AMSL)
Location 0.809507° -77.708057°
Runways 1
Magnetic Variation 4.210° W

METAR

SETU 151800Z 08010KT 9999 BKN023 18/08 Q1030

Decode

TAF

Not found

Destination Runways

ID Width Length Bearing (true) Bearing (mag) Surface Threshold Offset Overrun Length
05 98 ft / 30 m 8,115 ft / 2,473 m 54.71° 58.92° Asphalt 0 ft / 0 m 0 ft / 0 m
23 98 ft / 30 m 8,115 ft / 2,473 m 234.71° 238.92° Asphalt 0 ft / 0 m 0 ft / 0 m

Popular Alternatives